createdAt,value
2018-09-23T00:00:36.201Z,1008.11
2018-09-23T00:01:35.741Z,1008.09
2018-09-23T00:02:35.667Z,1008.05
2018-09-23T00:03:35.627Z,1008.03
2018-09-23T00:04:35.595Z,1007.99
2018-09-23T00:05:35.562Z,1007.94
2018-09-23T00:06:35.526Z,1007.90
2018-09-23T00:07:35.496Z,1007.94
2018-09-23T00:08:35.461Z,1007.91
2018-09-23T00:09:35.421Z,1007.83
2018-09-23T00:10:35.385Z,1007.92
2018-09-23T00:11:35.348Z,1007.96
2018-09-23T00:12:35.313Z,1007.92
2018-09-23T00:13:35.279Z,1007.90
2018-09-23T00:14:35.248Z,1007.82
2018-09-23T00:15:35.210Z,1007.82
2018-09-23T00:16:35.184Z,1007.77
2018-09-23T00:17:35.143Z,1007.78
2018-09-23T00:18:35.105Z,1007.66
2018-09-23T00:19:35.069Z,1007.69
2018-09-23T00:20:35.041Z,1007.64
2018-09-23T00:21:34.995Z,1007.55
2018-09-23T00:22:34.962Z,1007.53
2018-09-23T00:23:34.931Z,1007.45
2018-09-23T00:24:34.896Z,1007.42
2018-09-23T00:25:34.900Z,1007.43
2018-09-23T00:26:34.823Z,1007.39
2018-09-23T00:27:34.785Z,1007.30
2018-09-23T00:28:34.752Z,1007.33
2018-09-23T00:29:34.726Z,1007.37
2018-09-23T00:30:34.712Z,1007.39
2018-09-23T00:31:34.648Z,1007.38
2018-09-23T00:32:34.615Z,1007.37
2018-09-23T00:33:34.577Z,1007.36
2018-09-23T00:34:35.166Z,1007.32
2018-09-23T00:35:34.539Z,1007.30
2018-09-23T00:36:34.479Z,1007.29
2018-09-23T00:37:34.442Z,1007.30
2018-09-23T00:38:34.400Z,1007.22
2018-09-23T00:39:34.364Z,1007.23
2018-09-23T00:40:34.332Z,1007.20
2018-09-23T00:41:34.309Z,1007.22
2018-09-23T00:42:34.264Z,1007.17
2018-09-23T00:43:34.222Z,1007.21
2018-09-23T00:44:34.188Z,1007.16
2018-09-23T00:45:34.160Z,1007.12
2018-09-23T00:46:34.119Z,1007.09
2018-09-23T00:47:34.084Z,1007.08
2018-09-23T00:48:34.053Z,1007.08
2018-09-23T00:49:34.023Z,1007.05
2018-09-23T00:50:33.985Z,1007.14
2018-09-23T00:51:33.943Z,1007.03
2018-09-23T00:52:33.909Z,1007.01
2018-09-23T00:53:33.875Z,1006.94
2018-09-23T00:54:33.842Z,1006.88
2018-09-23T00:55:33.806Z,1006.76
2018-09-23T00:56:34.007Z,1006.68
2018-09-23T00:57:33.736Z,1006.66
2018-09-23T00:58:33.700Z,1006.76
2018-09-23T00:59:33.668Z,1006.78
2018-09-23T01:00:34.041Z,1006.76
2018-09-23T01:01:33.592Z,1006.86
2018-09-23T01:02:33.560Z,1006.79
2018-09-23T01:03:33.524Z,1006.81
2018-09-23T01:04:33.488Z,1006.82
2018-09-23T01:05:33.453Z,1006.84
2018-09-23T01:06:33.416Z,1006.73
2018-09-23T01:07:33.380Z,1006.56
2018-09-23T01:08:33.344Z,1006.62
2018-09-23T01:09:33.314Z,1006.57
2018-09-23T01:10:33.278Z,1006.51
2018-09-23T01:11:33.239Z,1006.42
2018-09-23T01:12:33.208Z,1006.38
2018-09-23T01:13:33.174Z,1006.40
2018-09-23T01:14:33.133Z,1006.44
2018-09-23T01:15:33.101Z,1006.44
2018-09-23T01:16:33.062Z,1006.33
2018-09-23T01:17:33.044Z,1006.34
2018-09-23T01:18:32.998Z,1006.22
2018-09-23T01:19:32.963Z,1006.23
2018-09-23T01:20:32.939Z,1006.22
2018-09-23T01:21:32.886Z,1006.25
2018-09-23T01:22:32.851Z,1006.19
2018-09-23T01:23:32.833Z,1006.25
2018-09-23T01:24:32.779Z,1006.25
2018-09-23T01:25:32.744Z,1006.31
2018-09-23T01:26:33.148Z,1006.33
2018-09-23T01:27:32.682Z,1006.34
2018-09-23T01:28:32.641Z,1006.28
2018-09-23T01:29:33.164Z,1006.27
2018-09-23T01:30:32.568Z,1006.26
2018-09-23T01:31:32.530Z,1006.23
2018-09-23T01:32:32.500Z,1006.28
2018-09-23T01:33:32.460Z,1006.28
2018-09-23T01:34:32.424Z,1006.40
2018-09-23T01:35:33.175Z,1006.34
2018-09-23T01:36:32.360Z,1006.37
2018-09-23T01:37:32.323Z,1006.19
2018-09-23T01:38:32.284Z,1006.21
2018-09-23T01:39:32.247Z,1006.18
2018-09-23T01:40:32.212Z,1006.15
2018-09-23T01:41:32.175Z,1006.09
2018-09-23T01:42:32.145Z,1006.06
2018-09-23T01:43:32.108Z,1006.05
2018-09-23T01:44:32.077Z,1005.99
2018-09-23T01:45:32.040Z,1006.02
2018-09-23T01:46:32.003Z,1006.02
2018-09-23T01:47:31.970Z,1006.03
2018-09-23T01:48:31.931Z,1005.97
2018-09-23T01:49:31.901Z,1005.93
2018-09-23T01:50:31.864Z,1005.86
2018-09-23T01:51:31.833Z,1005.89
2018-09-23T01:52:31.803Z,1005.81
2018-09-23T01:53:31.753Z,1005.79
2018-09-23T01:54:31.719Z,1005.85
2018-09-23T01:55:31.684Z,1005.79
2018-09-23T01:56:31.651Z,1005.83
2018-09-23T01:57:31.619Z,1005.78
2018-09-23T01:58:31.579Z,1005.72
2018-09-23T01:59:31.544Z,1005.68
2018-09-23T02:00:31.510Z,1005.67
2018-09-23T02:01:31.473Z,1005.55
2018-09-23T02:02:31.437Z,1005.50
2018-09-23T02:03:31.405Z,1005.46
2018-09-23T02:04:31.372Z,1005.39
2018-09-23T02:05:31.331Z,1005.36
2018-09-23T02:06:31.295Z,1005.38
2018-09-23T02:07:31.261Z,1005.21
2018-09-23T02:08:31.225Z,1005.22
2018-09-23T02:09:31.194Z,1005.26
2018-09-23T02:10:31.155Z,1005.27
2018-09-23T02:11:31.122Z,1005.36
2018-09-23T02:12:31.085Z,1005.38
2018-09-23T02:13:31.050Z,1005.38
2018-09-23T02:14:31.019Z,1005.31
2018-09-23T02:15:31.006Z,1005.34
2018-09-23T02:16:30.946Z,1005.39
2018-09-23T02:17:30.910Z,1005.43
2018-09-23T02:18:30.877Z,1005.40
2018-09-23T02:19:30.834Z,1005.43
2018-09-23T02:20:30.798Z,1005.47
2018-09-23T02:21:30.770Z,1005.51
2018-09-23T02:22:30.767Z,1005.48
2018-09-23T02:23:30.696Z,1005.47
2018-09-23T02:24:30.661Z,1005.48
2018-09-23T02:25:30.628Z,1005.49
2018-09-23T02:26:30.595Z,1005.48
2018-09-23T02:27:30.561Z,1005.46
2018-09-23T02:28:30.521Z,1005.43
2018-09-23T02:29:30.510Z,1005.54
2018-09-23T02:30:30.456Z,1005.47
2018-09-23T02:31:31.024Z,1005.41
2018-09-23T02:32:30.388Z,1005.38
2018-09-23T02:33:30.399Z,1005.33
2018-09-23T02:34:31.108Z,1005.19
2018-09-23T02:35:30.278Z,1005.26
2018-09-23T02:36:30.242Z,1005.24
2018-09-23T02:37:30.237Z,1005.08
2018-09-23T02:38:30.172Z,1005.07
2018-09-23T02:39:30.133Z,1005.10
2018-09-23T02:40:30.095Z,1005.05
2018-09-23T02:41:30.065Z,1005.03
2018-09-23T02:42:30.029Z,1004.97
2018-09-23T02:43:30.000Z,1005.03
2018-09-23T02:44:29.967Z,1005.02
2018-09-23T02:45:29.923Z,1005.00
2018-09-23T02:46:29.885Z,1004.99
2018-09-23T02:47:29.853Z,1004.97
2018-09-23T02:48:29.816Z,1004.94
2018-09-23T02:49:29.782Z,1004.96
2018-09-23T02:50:29.783Z,1004.95
2018-09-23T02:51:29.710Z,1004.93
2018-09-23T02:52:29.675Z,1004.90
2018-09-23T02:53:29.640Z,1004.87
2018-09-23T02:54:29.606Z,1004.77
2018-09-23T02:55:29.582Z,1004.81
2018-09-23T02:56:29.535Z,1004.68
2018-09-23T02:57:29.503Z,1004.66
2018-09-23T02:58:29.465Z,1004.67
2018-09-23T02:59:29.452Z,1004.61
2018-09-23T03:00:29.431Z,1004.50
2018-09-23T03:01:29.388Z,1004.54
2018-09-23T03:02:29.328Z,1004.55
2018-09-23T03:03:29.286Z,1004.48
2018-09-23T03:04:29.252Z,1004.47
2018-09-23T03:05:29.218Z,1004.40
2018-09-23T03:06:29.192Z,1004.50
2018-09-23T03:07:29.147Z,1004.49
2018-09-23T03:08:29.140Z,1004.46
2018-09-23T03:09:29.091Z,1004.42
2018-09-23T03:10:29.045Z,1004.43
2018-09-23T03:11:29.013Z,1004.41
2018-09-23T03:12:28.969Z,1004.26
2018-09-23T03:13:28.938Z,1004.36
2018-09-23T03:14:28.908Z,1004.38
2018-09-23T03:15:28.870Z,1004.28
2018-09-23T03:16:28.833Z,1004.34
2018-09-23T03:17:28.796Z,1004.32
2018-09-23T03:18:28.768Z,1004.26
2018-09-23T03:19:28.758Z,1004.35
2018-09-23T03:20:28.688Z,1004.29
2018-09-23T03:21:28.649Z,1004.31
2018-09-23T03:22:28.623Z,1004.22
2018-09-23T03:23:28.579Z,1004.29
2018-09-23T03:24:28.548Z,1004.19
2018-09-23T03:25:28.512Z,1004.23
2018-09-23T03:26:28.489Z,1004.19
2018-09-23T03:27:28.451Z,1004.25
2018-09-23T03:28:28.442Z,1004.19
2018-09-23T03:29:28.372Z,1004.15
2018-09-23T03:30:28.333Z,1004.13
2018-09-23T03:31:29.085Z,1004.11
2018-09-23T03:32:29.088Z,1004.03
2018-09-23T03:33:28.231Z,1004.07
2018-09-23T03:34:28.194Z,1004.02
2018-09-23T03:35:28.164Z,1004.07
2018-09-23T03:36:28.124Z,1004.01
2018-09-23T03:37:28.099Z,1004.04
2018-09-23T03:38:28.050Z,1004.06
2018-09-23T03:39:28.019Z,1004.08
2018-09-23T03:40:27.983Z,1004.04
2018-09-23T03:41:27.951Z,1003.94
2018-09-23T03:42:27.910Z,1004.03
2018-09-23T03:43:27.876Z,1004.08
2018-09-23T03:44:27.842Z,1004.09
2018-09-23T03:45:27.807Z,1004.14
2018-09-23T03:46:27.777Z,1004.15
2018-09-23T03:47:27.751Z,1004.12
2018-09-23T03:48:27.704Z,1004.07
2018-09-23T03:49:27.667Z,1004.00
2018-09-23T03:50:27.853Z,1004.03
2018-09-23T03:51:27.616Z,1003.99
2018-09-23T03:52:27.560Z,1004.05
2018-09-23T03:53:27.525Z,1004.08
2018-09-23T03:54:27.488Z,1004.00
2018-09-23T03:55:27.455Z,1003.98
2018-09-23T03:56:27.420Z,1003.98
2018-09-23T03:57:27.384Z,1003.95
2018-09-23T03:58:27.346Z,1003.86
2018-09-23T03:59:27.311Z,1003.90
2018-09-23T04:00:27.281Z,1003.84
2018-09-23T04:01:27.246Z,1003.77
2018-09-23T04:02:27.208Z,1003.76
2018-09-23T04:03:27.168Z,1003.71
2018-09-23T04:04:27.144Z,1003.70
2018-09-23T04:05:27.106Z,1003.61
2018-09-23T04:06:27.072Z,1003.61
2018-09-23T04:07:27.040Z,1003.61
2018-09-23T04:08:27.005Z,1003.54
2018-09-23T04:09:26.972Z,1003.56
2018-09-23T04:10:26.936Z,1003.50
2018-09-23T04:11:26.909Z,1003.50
2018-09-23T04:12:26.857Z,1003.42
2018-09-23T04:13:26.823Z,1003.39
2018-09-23T04:14:26.792Z,1003.50
2018-09-23T04:15:26.750Z,1003.47
2018-09-23T04:16:26.714Z,1003.50
2018-09-23T04:17:26.678Z,1003.50
2018-09-23T04:18:26.672Z,1003.41
2018-09-23T04:19:26.605Z,1003.49
2018-09-23T04:20:26.570Z,1003.46
2018-09-23T04:21:26.541Z,1003.40
2018-09-23T04:22:26.516Z,1003.45
2018-09-23T04:23:26.463Z,1003.32
2018-09-23T04:24:26.429Z,1003.47
2018-09-23T04:25:26.403Z,1003.49
2018-09-23T04:26:26.366Z,1003.51
2018-09-23T04:27:26.696Z,1003.45
2018-09-23T04:28:26.296Z,1003.35
2018-09-23T04:29:26.257Z,1003.38
2018-09-23T04:30:26.217Z,1003.37
2018-09-23T04:31:26.187Z,1003.49
2018-09-23T04:32:26.150Z,1003.30
2018-09-23T04:33:26.117Z,1003.29
2018-09-23T04:34:26.082Z,1003.21
2018-09-23T04:35:26.043Z,1003.20
2018-09-23T04:36:26.004Z,1003.26
2018-09-23T04:37:25.977Z,1003.14
2018-09-23T04:38:25.937Z,1003.09
2018-09-23T04:39:25.904Z,1003.05
2018-09-23T04:40:25.872Z,1003.16
2018-09-23T04:41:25.831Z,1003.09
2018-09-23T04:42:25.798Z,1003.04
2018-09-23T04:43:25.757Z,1003.04
2018-09-23T04:44:25.729Z,1003.08
2018-09-23T04:45:25.691Z,1003.01
2018-09-23T04:46:25.652Z,1003.11
2018-09-23T04:47:25.619Z,1003.09
2018-09-23T04:48:25.586Z,1003.07
2018-09-23T04:49:25.573Z,1003.06
2018-09-23T04:50:25.508Z,1003.05
2018-09-23T04:51:25.525Z,1003.06
2018-09-23T04:52:25.444Z,1003.01
2018-09-23T04:53:25.415Z,1002.99
2018-09-23T04:54:25.379Z,1002.98
2018-09-23T04:55:25.470Z,1003.01
2018-09-23T04:56:25.310Z,1003.05
2018-09-23T04:57:25.276Z,1003.06
2018-09-23T04:58:25.228Z,1003.01
2018-09-23T04:59:25.193Z,1003.08
2018-09-23T05:00:25.163Z,1003.02
2018-09-23T05:01:25.142Z,1003.04
2018-09-23T05:02:25.090Z,1003.04
2018-09-23T05:03:25.589Z,1003.04
2018-09-23T05:04:25.016Z,1003.02
2018-09-23T05:05:25.592Z,1002.99
2018-09-23T05:06:24.987Z,1002.95
2018-09-23T05:07:24.940Z,1003.01
2018-09-23T05:08:24.886Z,1002.96
2018-09-23T05:09:24.847Z,1002.96
2018-09-23T05:10:24.810Z,1002.95
2018-09-23T05:11:24.783Z,1002.96
2018-09-23T05:12:24.736Z,1002.96
2018-09-23T05:13:24.702Z,1002.97
2018-09-23T05:14:24.923Z,1002.98
2018-09-23T05:15:25.164Z,1002.99
2018-09-23T05:16:24.598Z,1002.98
2018-09-23T05:17:24.564Z,1002.87
2018-09-23T05:18:24.532Z,1002.93
2018-09-23T05:19:24.497Z,1002.99
2018-09-23T05:20:24.461Z,1002.97
2018-09-23T05:21:24.420Z,1002.92
2018-09-23T05:22:24.397Z,1003.00
2018-09-23T05:23:24.356Z,1002.98
2018-09-23T05:24:24.326Z,1002.95
2018-09-23T05:25:24.275Z,1002.94
2018-09-23T05:26:24.246Z,1002.97
2018-09-23T05:27:24.211Z,1003.01
2018-09-23T05:28:24.173Z,1002.91
2018-09-23T05:29:24.157Z,1002.94
2018-09-23T05:30:24.117Z,1002.87
2018-09-23T05:31:24.067Z,1002.85
2018-09-23T05:32:24.040Z,1002.81
2018-09-23T05:33:23.998Z,1002.87
2018-09-23T05:34:23.967Z,1002.81
2018-09-23T05:35:23.950Z,1002.90
2018-09-23T05:36:23.895Z,1002.90
2018-09-23T05:37:23.883Z,1002.93
2018-09-23T05:38:23.827Z,1002.86
2018-09-23T05:39:23.798Z,1002.77
2018-09-23T05:40:23.761Z,1002.80
2018-09-23T05:41:23.719Z,1002.77
2018-09-23T05:42:23.685Z,1002.78
2018-09-23T05:43:23.649Z,1002.73
2018-09-23T05:44:23.613Z,1002.79
2018-09-23T05:45:23.589Z,1002.77
2018-09-23T05:46:23.544Z,1002.73
2018-09-23T05:47:23.511Z,1002.74
2018-09-23T05:48:23.473Z,1002.76
2018-09-23T05:49:23.439Z,1002.73
2018-09-23T05:50:23.405Z,1002.70
2018-09-23T05:51:23.375Z,1002.69
2018-09-23T05:52:23.330Z,1002.67
2018-09-23T05:53:23.311Z,1002.78
2018-09-23T05:54:23.284Z,1002.74
2018-09-23T05:55:23.230Z,1002.75
2018-09-23T05:56:23.228Z,1002.70
2018-09-23T05:57:23.157Z,1002.69
2018-09-23T05:58:23.147Z,1002.65
2018-09-23T05:59:23.102Z,1002.64
2018-09-23T06:00:23.089Z,1002.62
2018-09-23T06:01:23.018Z,1002.63
2018-09-23T06:02:22.988Z,1002.58
2018-09-23T06:03:22.950Z,1002.53
2018-09-23T06:04:22.919Z,1002.46
2018-09-23T06:05:22.879Z,1002.53
2018-09-23T06:06:22.845Z,1002.58
2018-09-23T06:07:22.821Z,1002.51
2018-09-23T06:08:22.772Z,1002.53
2018-09-23T06:09:22.734Z,1002.61
2018-09-23T06:10:22.704Z,1002.59
2018-09-23T06:11:22.695Z,1002.51
2018-09-23T06:12:22.632Z,1002.48
2018-09-23T06:13:22.606Z,1002.56
2018-09-23T06:14:22.562Z,1002.56
2018-09-23T06:15:22.529Z,1002.57
2018-09-23T06:16:22.496Z,1002.54
2018-09-23T06:17:22.467Z,1002.60
2018-09-23T06:18:22.483Z,1002.58
2018-09-23T06:19:22.405Z,1002.56
2018-09-23T06:20:22.353Z,1002.56
2018-09-23T06:21:22.327Z,1002.59
2018-09-23T06:22:22.281Z,1002.61
2018-09-23T06:23:22.249Z,1002.63
2018-09-23T06:24:22.215Z,1002.56
2018-09-23T06:25:22.262Z,1002.60
2018-09-23T06:26:22.147Z,1002.56
2018-09-23T06:27:22.109Z,1002.56
2018-09-23T06:28:22.078Z,1002.52
2018-09-23T06:29:22.042Z,1002.48
2018-09-23T06:30:22.013Z,1002.48
2018-09-23T06:31:21.972Z,1002.43
2018-09-23T06:32:21.946Z,1002.43
2018-09-23T06:33:21.902Z,1002.39
2018-09-23T06:34:21.867Z,1002.35
2018-09-23T06:35:21.840Z,1002.33
2018-09-23T06:36:21.798Z,1002.32
2018-09-23T06:37:21.771Z,1002.28
2018-09-23T06:38:21.726Z,1002.31
2018-09-23T06:39:21.696Z,1002.33
2018-09-23T06:40:21.656Z,1002.35
2018-09-23T06:41:21.645Z,1002.31
2018-09-23T06:42:21.613Z,1002.34
2018-09-23T06:43:21.556Z,1002.36
2018-09-23T06:44:21.521Z,1002.33
2018-09-23T06:45:21.483Z,1002.34
2018-09-23T06:46:21.452Z,1002.37
2018-09-23T06:47:21.426Z,1002.36
2018-09-23T06:48:21.406Z,1002.43
2018-09-23T06:49:21.352Z,1002.43
2018-09-23T06:50:21.315Z,1002.42
2018-09-23T06:51:21.281Z,1002.43
2018-09-23T06:52:21.248Z,1002.41
2018-09-23T06:53:21.209Z,1002.38
2018-09-23T06:54:21.175Z,1002.42
2018-09-23T06:55:21.141Z,1002.40
2018-09-23T06:56:21.116Z,1002.39
2018-09-23T06:57:21.099Z,1002.41
2018-09-23T06:58:21.037Z,1002.36
2018-09-23T06:59:21.043Z,1002.41
2018-09-23T07:00:20.969Z,1002.43
2018-09-23T07:01:20.936Z,1002.38
2018-09-23T07:02:20.901Z,1002.41
2018-09-23T07:03:20.872Z,1002.45
2018-09-23T07:04:20.852Z,1002.41
2018-09-23T07:05:20.795Z,1002.38
2018-09-23T07:06:20.761Z,1002.38
2018-09-23T07:07:20.727Z,1002.33
2018-09-23T07:08:20.690Z,1002.35
2018-09-23T07:09:20.661Z,1002.33
2018-09-23T07:10:20.656Z,1002.16
2018-09-23T07:11:20.592Z,1002.19
2018-09-23T07:12:20.556Z,1002.27
2018-09-23T07:13:20.527Z,1002.16
2018-09-23T07:14:20.493Z,1002.19
2018-09-23T07:15:20.454Z,1002.14
2018-09-23T07:16:20.422Z,1002.18
2018-09-23T07:17:20.643Z,1002.18
2018-09-23T07:18:20.359Z,1002.19
2018-09-23T07:19:20.330Z,1002.21
2018-09-23T07:20:20.285Z,1002.25
2018-09-23T07:21:20.248Z,1002.12
2018-09-23T07:22:20.219Z,1002.25
2018-09-23T07:23:20.182Z,1002.21
2018-09-23T07:24:20.167Z,1002.23
2018-09-23T07:25:20.113Z,1002.23
2018-09-23T07:26:20.078Z,1002.26
2018-09-23T07:27:20.047Z,1002.29
2018-09-23T07:28:20.017Z,1002.24
2018-09-23T07:29:19.985Z,1002.23
2018-09-23T07:30:19.940Z,1002.26
2018-09-23T07:31:19.912Z,1002.21
2018-09-23T07:32:19.877Z,1002.15
2018-09-23T07:33:19.838Z,1002.21
2018-09-23T07:34:19.814Z,1002.24
2018-09-23T07:35:19.771Z,1002.23
2018-09-23T07:36:19.738Z,1002.23
2018-09-23T07:37:19.742Z,1002.25
2018-09-23T07:38:19.680Z,1002.34
2018-09-23T07:39:19.699Z,1002.24
2018-09-23T07:40:19.603Z,1002.29
2018-09-23T07:41:19.572Z,1002.29
2018-09-23T07:42:19.537Z,1002.26
2018-09-23T07:43:19.500Z,1002.19
2018-09-23T07:44:19.467Z,1002.27
2018-09-23T07:45:19.433Z,1002.21
2018-09-23T07:46:19.402Z,1002.26
2018-09-23T07:47:19.370Z,1002.22
2018-09-23T07:48:19.337Z,1002.33
2018-09-23T07:49:19.303Z,1002.32
2018-09-23T07:50:19.263Z,1002.28
2018-09-23T07:51:19.233Z,1002.25
2018-09-23T07:52:19.201Z,1002.25
2018-09-23T07:53:19.170Z,1002.26
2018-09-23T07:54:19.126Z,1002.30
2018-09-23T07:55:19.107Z,1002.26
2018-09-23T07:56:19.098Z,1002.29
2018-09-23T07:57:19.032Z,1002.25
2018-09-23T07:58:18.994Z,1002.22
2018-09-23T07:59:18.974Z,1002.23
2018-09-23T08:00:18.931Z,1002.18
2018-09-23T08:01:18.904Z,1002.18
2018-09-23T08:02:18.891Z,1002.16
2018-09-23T08:03:18.842Z,1002.23
2018-09-23T08:04:18.796Z,1002.26
2018-09-23T08:05:18.759Z,1002.28
2018-09-23T08:06:18.727Z,1002.31
2018-09-23T08:07:18.697Z,1002.28
2018-09-23T08:08:18.665Z,1002.26
2018-09-23T08:09:18.634Z,1002.21
2018-09-23T08:10:18.701Z,1002.21
2018-09-23T08:11:18.558Z,1002.16
2018-09-23T08:12:18.590Z,1002.10
2018-09-23T08:13:18.528Z,1002.14
2018-09-23T08:14:19.061Z,1002.12
2018-09-23T08:15:18.422Z,1002.08
2018-09-23T08:16:18.401Z,1002.07
2018-09-23T08:17:18.379Z,1002.03
2018-09-23T08:18:18.324Z,1002.00
2018-09-23T08:19:18.413Z,1002.03
2018-09-23T08:20:18.324Z,1002.06
2018-09-23T08:21:18.249Z,1002.02
2018-09-23T08:22:18.196Z,1002.06
2018-09-23T08:23:18.289Z,1002.08
2018-09-23T08:24:18.142Z,1002.01
2018-09-23T08:25:18.302Z,1002.03
2018-09-23T08:26:18.072Z,1001.99
2018-09-23T08:27:18.032Z,1001.98
2018-09-23T08:28:17.994Z,1001.92
2018-09-23T08:29:17.981Z,1001.94
2018-09-23T08:30:17.951Z,1001.93
2018-09-23T08:31:17.895Z,1001.92
2018-09-23T08:32:17.870Z,1001.91
2018-09-23T08:33:17.835Z,1001.95
2018-09-23T08:34:17.794Z,1001.98
2018-09-23T08:35:17.758Z,1001.94
2018-09-23T08:36:17.731Z,1001.98
2018-09-23T08:37:17.714Z,1001.91
2018-09-23T08:38:17.662Z,1001.98
2018-09-23T08:39:17.628Z,1001.95
2018-09-23T08:40:17.597Z,1001.92
2018-09-23T08:41:17.572Z,1001.93
2018-09-23T08:42:17.527Z,1001.84
2018-09-23T08:43:17.561Z,1001.90
2018-09-23T08:44:17.468Z,1001.90
2018-09-23T08:45:17.432Z,1001.94
2018-09-23T08:46:17.396Z,1001.88
2018-09-23T08:47:17.364Z,1001.83
2018-09-23T08:48:17.365Z,1001.88
2018-09-23T08:49:17.294Z,1001.83
2018-09-23T08:50:17.270Z,1001.82
2018-09-23T08:51:17.230Z,1001.79
2018-09-23T08:52:17.279Z,1001.78
2018-09-23T08:53:17.163Z,1001.66
2018-09-23T08:54:17.139Z,1001.70
2018-09-23T08:55:17.101Z,1001.70
2018-09-23T08:56:17.067Z,1001.61
2018-09-23T08:57:17.089Z,1001.66
2018-09-23T08:58:16.999Z,1001.71
2018-09-23T08:59:16.976Z,1001.66
2018-09-23T09:00:16.969Z,1001.62
2018-09-23T09:01:16.899Z,1001.58
2018-09-23T09:02:16.901Z,1001.56
2018-09-23T09:03:16.835Z,1001.55
2018-09-23T09:04:16.797Z,1001.55
2018-09-23T09:05:16.792Z,1001.48
2018-09-23T09:06:16.755Z,1001.50
2018-09-23T09:07:16.701Z,1001.47
2018-09-23T09:08:16.692Z,1001.44
2018-09-23T09:09:16.650Z,1001.37
2018-09-23T09:10:16.605Z,1001.28
2018-09-23T09:11:16.577Z,1001.25
2018-09-23T09:12:16.567Z,1001.24
2018-09-23T09:13:16.505Z,1001.21
2018-09-23T09:14:16.469Z,1001.17
2018-09-23T09:15:16.439Z,1001.16
2018-09-23T09:16:16.401Z,1001.17
2018-09-23T09:17:16.374Z,1001.01
2018-09-23T09:18:16.418Z,1001.14
2018-09-23T09:19:16.308Z,1001.11
2018-09-23T09:20:16.271Z,1001.07
2018-09-23T09:21:16.247Z,1001.14
2018-09-23T09:22:16.211Z,1001.11
2018-09-23T09:23:16.175Z,1001.10
2018-09-23T09:24:16.152Z,1001.07
2018-09-23T09:25:16.139Z,1001.11
2018-09-23T09:26:16.078Z,1001.17
2018-09-23T09:27:16.108Z,1001.14
2018-09-23T09:28:16.027Z,1001.07
2018-09-23T09:29:15.989Z,1001.12
2018-09-23T09:30:15.951Z,1001.08
2018-09-23T09:31:15.923Z,1001.07
2018-09-23T09:32:15.886Z,1001.06
2018-09-23T09:33:15.862Z,1001.08
2018-09-23T09:34:15.823Z,1001.10
2018-09-23T09:35:16.153Z,1001.09
2018-09-23T09:36:15.779Z,1001.07
2018-09-23T09:37:15.725Z,1001.04
2018-09-23T09:38:15.701Z,1001.07
2018-09-23T09:39:15.660Z,1001.08
2018-09-23T09:40:15.626Z,1000.97
2018-09-23T09:41:15.594Z,1001.00
2018-09-23T09:42:15.569Z,1001.05
2018-09-23T09:43:15.521Z,1000.99
2018-09-23T09:44:15.494Z,1000.96
2018-09-23T09:45:15.462Z,1000.93
2018-09-23T09:46:15.431Z,1000.95
2018-09-23T09:47:15.391Z,1000.87
2018-09-23T09:48:15.386Z,1000.84
2018-09-23T09:49:15.332Z,1000.86
2018-09-23T09:50:15.295Z,1000.85
2018-09-23T09:51:15.264Z,1000.77
2018-09-23T09:52:15.229Z,1000.79
2018-09-23T09:53:15.205Z,1000.80
2018-09-23T09:54:15.172Z,1000.74
2018-09-23T09:55:15.134Z,1000.72
2018-09-23T09:56:15.128Z,1000.70
2018-09-23T09:57:15.067Z,1000.63
2018-09-23T09:58:15.034Z,1000.66
2018-09-23T09:59:15.005Z,1000.56
2018-09-23T10:00:14.991Z,1000.56
2018-09-23T10:01:14.931Z,1000.53
2018-09-23T10:02:15.033Z,1000.49
2018-09-23T10:03:14.879Z,1000.46
2018-09-23T10:04:14.865Z,1000.41
2018-09-23T10:05:14.807Z,1000.34
2018-09-23T10:06:14.778Z,1000.27
2018-09-23T10:07:14.746Z,1000.21
2018-09-23T10:08:14.707Z,1000.20
2018-09-23T10:09:14.682Z,1000.22
2018-09-23T10:10:14.650Z,1000.21
2018-09-23T10:11:14.609Z,1000.14
2018-09-23T10:12:14.588Z,1000.13
2018-09-23T10:13:14.551Z,1000.05
2018-09-23T10:15:14.476Z,1000.04
2018-09-23T10:16:14.448Z,999.97
2018-09-23T10:17:14.415Z,999.90
2018-09-23T10:18:14.389Z,999.89
2018-09-23T10:19:14.360Z,999.88
2018-09-23T10:20:14.324Z,999.81
2018-09-23T10:22:14.257Z,999.81
2018-09-23T10:23:14.337Z,999.75
2018-09-23T10:24:14.190Z,999.75
2018-09-23T10:36:14.838Z,999.75
2018-09-23T10:38:13.760Z,999.34
2018-09-23T10:39:13.705Z,999.33
2018-09-23T10:44:13.546Z,999.33
2018-09-23T10:50:13.355Z,999.33
2018-09-23T10:51:13.315Z,999.58
2018-09-23T10:53:13.253Z,999.56
2018-09-23T10:54:13.218Z,999.77
2018-09-23T10:59:13.057Z,999.77
2018-09-23T11:01:12.989Z,999.30
2018-09-23T11:02:12.967Z,999.19
2018-09-23T11:03:12.928Z,999.19
2018-09-23T11:04:12.904Z,999.21
2018-09-23T11:05:12.859Z,999.33
2018-09-23T11:06:12.823Z,999.33
2018-09-23T11:07:12.833Z,999.37
2018-09-23T11:08:12.758Z,999.35
2018-09-23T11:09:12.725Z,999.34
2018-09-23T11:10:12.694Z,999.32
2018-09-23T11:11:12.660Z,999.23
2018-09-23T11:13:12.612Z,999.11
2018-09-23T11:14:12.560Z,999.13
2018-09-23T11:15:12.567Z,999.13
2018-09-23T11:16:12.493Z,999.08
2018-09-23T11:17:12.461Z,999.05
2018-09-23T11:18:12.426Z,999.05
2018-09-23T11:19:12.393Z,999.11
2018-09-23T11:20:12.360Z,999.17
2018-09-23T11:21:12.327Z,999.22
2018-09-23T11:22:12.291Z,999.22
2018-09-23T11:23:12.286Z,999.13
2018-09-23T11:24:12.225Z,999.06
2018-09-23T11:25:12.191Z,998.98
2018-09-23T11:26:12.158Z,998.97
2018-09-23T11:27:12.125Z,998.85
2018-09-23T11:29:12.051Z,998.84
2018-09-23T11:30:12.026Z,998.84
2018-09-23T11:31:11.987Z,998.84
2018-09-23T11:32:11.962Z,998.84
2018-09-23T11:33:11.921Z,998.48
2018-09-23T11:34:11.884Z,998.52
2018-09-23T11:35:11.851Z,998.49
2018-09-23T11:36:11.818Z,998.36
2018-09-23T11:37:11.786Z,998.10
2018-09-23T11:38:11.774Z,998.09
2018-09-23T11:39:11.715Z,998.14
2018-09-23T11:40:11.683Z,998.12
2018-09-23T11:41:12.104Z,998.07
2018-09-23T11:42:11.616Z,998.05
2018-09-23T11:43:11.580Z,997.94
2018-09-23T11:44:11.547Z,997.90
2018-09-23T11:45:11.510Z,997.88
2018-09-23T11:46:11.479Z,997.73
2018-09-23T11:48:11.415Z,997.72
2018-09-23T11:49:11.384Z,997.81
2018-09-23T11:50:11.344Z,997.89
2018-09-23T11:51:11.310Z,997.98
2018-09-23T11:52:11.278Z,998.08
2018-09-23T11:53:11.242Z,998.27
2018-09-23T11:54:11.251Z,998.55
2018-09-23T11:55:11.171Z,998.66
2018-09-23T11:56:11.141Z,998.82
2018-09-23T11:57:11.106Z,998.90
2018-09-23T11:58:11.076Z,998.91
2018-09-23T11:59:11.471Z,998.84
2018-09-23T12:00:11.007Z,998.71
2018-09-23T12:01:10.969Z,998.60
2018-09-23T12:02:10.989Z,998.42
2018-09-23T12:03:10.897Z,998.30
2018-09-23T12:04:10.865Z,998.16
2018-09-23T12:05:10.830Z,998.04
2018-09-23T12:06:10.797Z,998.13
2018-09-23T12:07:10.758Z,998.19
2018-09-23T12:08:10.737Z,998.12
2018-09-23T12:09:10.697Z,997.98
2018-09-23T12:11:10.620Z,997.97
2018-09-23T12:12:10.591Z,997.95
2018-09-23T12:13:10.553Z,997.94
2018-09-23T12:14:10.526Z,998.40
2018-09-23T12:15:10.488Z,998.39
2018-09-23T12:16:10.452Z,998.65
2018-09-23T12:17:10.420Z,998.64
2018-09-23T12:18:10.391Z,998.63
2018-09-23T12:19:10.351Z,998.53
2018-09-23T12:20:10.317Z,998.59
2018-09-23T12:23:10.214Z,998.58
2018-09-23T12:24:10.173Z,998.58
2018-09-23T12:28:10.037Z,999.03
2018-09-23T12:29:10.001Z,999.09
2018-09-23T12:30:10.005Z,999.00
2018-09-23T12:38:09.692Z,999.51
2018-09-23T12:39:09.657Z,999.40
2018-09-23T12:40:09.627Z,999.29
2018-09-23T12:41:09.588Z,999.26
2018-09-23T12:42:09.555Z,999.31
2018-09-23T12:43:09.516Z,999.23
2018-09-23T12:44:09.486Z,999.03
2018-09-23T12:46:09.524Z,999.16
2018-09-23T12:47:09.377Z,999.27
2018-09-23T12:48:09.345Z,999.41
2018-09-23T12:49:09.310Z,999.54
2018-09-23T12:50:09.273Z,999.56
2018-09-23T12:51:09.238Z,999.55
2018-09-23T12:55:09.100Z,999.26
2018-09-23T12:56:09.064Z,999.25
2018-09-23T12:57:09.029Z,999.38
2018-09-23T12:58:08.996Z,999.49